createdAt,value
2023-01-08T00:01:05.567Z,9.8
2023-01-08T00:03:07.062Z,9.7
2023-01-08T00:05:08.284Z,9.8
2023-01-08T00:07:12.959Z,9.8
2023-01-08T00:09:14.334Z,9.7
2023-01-08T00:11:15.706Z,9.7
2023-01-08T00:13:17.053Z,9.7
2023-01-08T00:15:18.422Z,9.7
2023-01-08T00:17:19.777Z,9.7
2023-01-08T00:19:21.139Z,9.7
2023-01-08T00:23:27.181Z,9.7
2023-01-08T00:25:28.568Z,9.7
2023-01-08T00:26:30.875Z,9.8
2023-01-08T00:28:32.259Z,9.8
2023-01-08T00:30:33.711Z,9.8
2023-01-08T00:32:34.986Z,9.8
2023-01-08T00:34:39.687Z,9.9
2023-01-08T00:36:41.034Z,9.8
2023-01-08T00:38:42.391Z,9.8
2023-01-08T00:44:46.494Z,9.8
2023-01-08T00:46:47.833Z,9.9
2023-01-08T00:48:52.532Z,9.9
2023-01-08T00:50:53.940Z,9.9
2023-01-08T00:52:55.259Z,9.9
2023-01-08T00:54:56.609Z,9.9
2023-01-08T00:56:58.009Z,10
2023-01-08T00:58:59.362Z,9.9
2023-01-08T01:01:00.801Z,9.9
2023-01-08T01:03:05.370Z,9.8
2023-01-08T01:05:06.748Z,9.8
2023-01-08T01:07:08.127Z,9.8
2023-01-08T01:09:09.504Z,9.8
2023-01-08T01:11:10.861Z,9.8
2023-01-08T01:13:12.211Z,9.9
2023-01-08T01:23:43.885Z,10
2023-01-08T01:25:45.911Z,10
2023-01-08T01:27:46.609Z,10
2023-01-08T01:29:51.299Z,10
2023-01-08T01:31:52.665Z,10
2023-01-08T01:33:54.023Z,10
2023-01-08T01:35:56.975Z,9.9
2023-01-08T01:37:58.270Z,10
2023-01-08T01:39:59.635Z,10
2023-01-08T01:42:01.011Z,10
2023-01-08T01:44:05.691Z,10
2023-01-08T01:46:07.086Z,10
2023-01-08T01:48:08.426Z,9.9
2023-01-08T01:50:09.787Z,10
2023-01-08T01:52:11.153Z,10
2023-01-08T01:54:12.512Z,10
2023-01-08T01:56:13.895Z,10
2023-01-08T01:58:18.551Z,9.9
2023-01-08T02:00:19.917Z,9.8
2023-01-08T02:02:22.956Z,9.7
2023-01-08T02:04:22.684Z,9.6
2023-01-08T02:06:23.988Z,9.4
2023-01-08T02:10:26.725Z,9.1
2023-01-08T02:14:32.738Z,9.2
2023-01-08T02:17:36.460Z,9.1
2023-01-08T02:19:37.840Z,9.1
2023-01-08T02:21:39.151Z,9.1
2023-01-08T02:23:40.524Z,9.2
2023-01-08T02:25:45.228Z,9.1
2023-01-08T02:27:46.596Z,9
2023-01-08T02:29:47.989Z,9
2023-01-08T02:31:49.335Z,8.9
2023-01-08T02:33:50.671Z,8.9
2023-01-08T02:35:52.046Z,8.9
2023-01-08T02:39:58.072Z,8.8
2023-01-08T02:41:59.406Z,8.8
2023-01-08T02:44:00.800Z,8.8
2023-01-08T02:46:02.246Z,8.7
2023-01-08T02:50:04.887Z,8.6
2023-01-08T02:52:06.265Z,8.6
2023-01-08T02:54:10.882Z,8.6
2023-01-08T02:56:12.265Z,8.6
2023-01-08T02:58:13.639Z,8.7
2023-01-08T03:02:16.525Z,9.1
2023-01-08T03:04:17.788Z,9.1
2023-01-08T03:06:19.052Z,9.2
2023-01-08T03:12:26.415Z,9.3
2023-01-08T03:13:28.740Z,9.3
2023-01-08T03:15:30.125Z,9.3
2023-01-08T03:17:31.457Z,9.3
2023-01-08T03:19:32.810Z,9.4
2023-01-08T03:21:37.451Z,9.2
2023-01-08T03:23:38.892Z,9.2
2023-01-08T03:25:40.186Z,9.3
2023-01-08T03:27:41.568Z,9.2
2023-01-08T03:29:42.892Z,9.1
2023-01-08T03:31:44.325Z,9.1
2023-01-08T03:33:45.659Z,9
2023-01-08T03:35:50.326Z,9
2023-01-08T03:37:51.726Z,8.9
2023-01-08T03:39:53.068Z,8.9
2023-01-08T03:41:54.427Z,8.8
2023-01-08T03:43:55.773Z,8.8
2023-01-08T03:45:57.188Z,8.8
2023-01-08T03:47:58.468Z,8.8
2023-01-08T03:50:03.158Z,8.7
2023-01-08T03:52:04.533Z,8.7
2023-01-08T03:54:05.900Z,8.6
2023-01-08T03:56:07.246Z,8.6
2023-01-08T03:58:08.640Z,8.6
2023-01-08T04:00:09.968Z,8.5
2023-01-08T04:02:11.427Z,8.5
2023-01-08T04:04:16.100Z,8.4
2023-01-08T04:06:17.405Z,8.4
2023-01-08T04:08:18.706Z,8.4
2023-01-08T04:09:21.059Z,8.3
2023-01-08T04:11:22.403Z,8.3
2023-01-08T04:13:23.800Z,8.2
2023-01-08T04:15:25.137Z,8.2
2023-01-08T04:17:29.770Z,8.2
2023-01-08T04:19:31.139Z,8.1
2023-01-08T04:21:32.497Z,8.1
2023-01-08T04:23:33.880Z,8.1
2023-01-08T04:27:36.567Z,8
2023-01-08T04:29:37.933Z,8
2023-01-08T04:33:43.943Z,7.9
2023-01-08T04:35:45.289Z,7.9
2023-01-08T04:37:46.648Z,7.9
2023-01-08T04:39:48.015Z,7.9
2023-01-08T04:41:49.366Z,7.9
2023-01-08T04:43:50.718Z,7.9
2023-01-08T04:45:55.418Z,7.9
2023-01-08T04:47:56.732Z,7.8
2023-01-08T04:49:58.098Z,7.8
2023-01-08T04:51:59.459Z,7.8
2023-01-08T04:54:00.835Z,7.9
2023-01-08T04:56:02.165Z,7.9
2023-01-08T04:58:03.518Z,7.9
2023-01-08T05:00:08.182Z,7.9
2023-01-08T05:02:09.657Z,7.9
2023-01-08T05:04:10.886Z,7.9
2023-01-08T05:06:39.668Z,7.9
2023-01-08T05:08:41.036Z,7.9
2023-01-08T05:10:42.404Z,7.9
2023-01-08T05:12:47.036Z,7.9
2023-01-08T05:14:48.389Z,7.9
2023-01-08T05:16:49.728Z,8
2023-01-08T05:18:51.142Z,8.1
2023-01-08T05:20:52.429Z,8.2
2023-01-08T05:22:53.812Z,8.1
2023-01-08T05:24:55.145Z,8.1
2023-01-08T05:26:59.811Z,8.2
2023-01-08T05:29:01.210Z,8.2
2023-01-08T05:31:02.563Z,8.2
2023-01-08T05:33:03.891Z,8.2
2023-01-08T05:37:06.611Z,8.1
2023-01-08T05:39:07.974Z,8.2
2023-01-08T05:41:12.604Z,8.2
2023-01-08T05:47:16.667Z,8.2
2023-01-08T05:49:18.039Z,8.2
2023-01-08T05:51:19.384Z,8.2
2023-01-08T05:53:20.712Z,8.2
2023-01-08T05:57:26.770Z,8.1
2023-01-08T05:59:28.101Z,8.2
2023-01-08T06:00:30.447Z,8.3
2023-01-08T06:02:31.853Z,8.2
2023-01-08T06:04:33.238Z,8.2
2023-01-08T06:08:39.185Z,8.1
2023-01-08T06:10:40.519Z,8.2
2023-01-08T06:12:41.871Z,8.2
2023-01-08T06:14:43.252Z,8.1
2023-01-08T06:20:47.310Z,8
2023-01-08T06:22:51.962Z,8.1
2023-01-08T06:24:53.328Z,8.1
2023-01-08T06:32:58.746Z,8
2023-01-08T06:35:00.137Z,8
2023-01-08T06:37:04.749Z,7.8
2023-01-08T06:39:06.111Z,7.8
2023-01-08T06:41:07.478Z,7.9
2023-01-08T06:43:08.787Z,7.7
2023-01-08T06:45:10.160Z,7.7
2023-01-08T06:47:11.507Z,7.7
2023-01-08T06:49:12.843Z,7.7
2023-01-08T06:51:17.482Z,7.6
2023-01-08T06:53:18.833Z,7.6
2023-01-08T06:55:20.214Z,7.6
2023-01-08T06:56:22.527Z,7.5
2023-01-08T06:58:23.843Z,7.5
2023-01-08T07:00:25.190Z,7.4
2023-01-08T07:02:26.707Z,7.5
2023-01-08T07:04:31.218Z,7.3
2023-01-08T07:06:32.549Z,7.2
2023-01-08T07:08:33.888Z,7.2
2023-01-08T07:12:36.559Z,7.2
2023-01-08T07:14:37.893Z,7.2
2023-01-08T07:16:39.246Z,7.2
2023-01-08T07:18:43.924Z,7
2023-01-08T07:28:52.195Z,6.9
2023-01-08T07:30:53.638Z,6.9
2023-01-08T07:34:59.542Z,7
2023-01-08T07:39:02.236Z,7
2023-01-08T07:41:03.569Z,7
2023-01-08T07:43:04.935Z,6.9
2023-01-08T07:45:06.297Z,6.8
2023-01-08T07:52:15.915Z,7.1
2023-01-08T07:54:17.249Z,7.1
2023-01-08T07:56:18.596Z,7.1
2023-01-08T07:58:19.954Z,7.1
2023-01-08T08:00:24.596Z,7.1
2023-01-08T08:02:26.088Z,6.9
2023-01-08T08:04:27.297Z,7
2023-01-08T08:06:28.608Z,7.1
2023-01-08T08:08:29.958Z,7
2023-01-08T08:10:31.306Z,7
2023-01-08T08:12:32.665Z,7.1
2023-01-08T08:14:37.313Z,7.3
2023-01-08T08:16:38.629Z,7.4
2023-01-08T08:18:39.993Z,7.6
2023-01-08T08:20:41.322Z,7.7
2023-01-08T08:22:42.666Z,7.8
2023-01-08T08:24:43.999Z,7.9
2023-01-08T08:26:45.331Z,7.9
2023-01-08T08:32:52.701Z,8.2
2023-01-08T08:34:54.043Z,8.3
2023-01-08T08:36:55.410Z,8.3
2023-01-08T08:38:56.733Z,8.4
2023-01-08T08:40:58.077Z,8.5
2023-01-08T08:43:02.746Z,8.7
2023-01-08T08:45:04.061Z,8.7
2023-01-08T08:47:05.412Z,8.8
2023-01-08T08:49:28.728Z,9
2023-01-08T08:51:30.104Z,8.9
2023-01-08T08:53:31.418Z,8.9
2023-01-08T08:55:36.067Z,8.9
2023-01-08T08:57:37.414Z,8.9
2023-01-08T08:59:38.761Z,8.8
2023-01-08T09:01:40.275Z,9
2023-01-08T09:03:41.451Z,8.9
2023-01-08T09:05:42.785Z,9.2
2023-01-08T09:07:44.163Z,9.2
2023-01-08T09:09:48.823Z,8.1
2023-01-08T09:11:50.170Z,7.9
2023-01-08T09:13:51.501Z,8.3
2023-01-08T09:15:52.925Z,8.7
2023-01-08T09:17:54.220Z,8.3
2023-01-08T09:19:55.566Z,8.8
2023-01-08T09:21:56.902Z,8.4
2023-01-08T09:24:01.583Z,8.8
2023-01-08T09:28:04.270Z,8.8
2023-01-08T09:30:05.633Z,8.2
2023-01-08T09:40:15.732Z,8.3
2023-01-08T09:42:17.031Z,8.6
2023-01-08T09:43:19.334Z,8.9
2023-01-08T09:45:20.707Z,9
2023-01-08T09:47:22.088Z,9.1
2023-01-08T09:49:23.412Z,9.3
2023-01-08T09:51:28.046Z,9
2023-01-08T09:53:29.432Z,9.1
2023-01-08T09:55:30.744Z,9.1
2023-01-08T09:57:32.133Z,9.1
2023-01-08T09:59:33.470Z,8.8
2023-01-08T10:01:35.092Z,8.5
2023-01-08T10:03:36.152Z,8.4
2023-01-08T10:05:40.839Z,8.4
2023-01-08T10:07:42.205Z,8.5
2023-01-08T10:09:43.559Z,8.6
2023-01-08T10:11:44.955Z,8.5
2023-01-08T10:13:46.248Z,8.5
2023-01-08T10:15:47.621Z,8.6
2023-01-08T10:19:53.635Z,8.6
2023-01-08T10:25:57.708Z,8.7
2023-01-08T10:27:59.089Z,8.8
2023-01-08T10:30:00.440Z,8.9
2023-01-08T10:36:07.798Z,9.2
2023-01-08T10:38:09.175Z,9.3
2023-01-08T10:39:11.473Z,9.4
2023-01-08T10:41:12.840Z,9.4
2023-01-08T10:45:15.601Z,9.4
2023-01-08T10:47:20.220Z,9.4
2023-01-08T10:49:21.594Z,9.4
2023-01-08T10:51:22.975Z,9.4
2023-01-08T10:53:24.311Z,9.4
2023-01-08T10:55:25.688Z,9.4
2023-01-08T10:57:27.039Z,9.4
2023-01-08T10:59:28.424Z,9.3
2023-01-08T11:01:33.103Z,9.3
2023-01-08T11:03:34.420Z,9.3
2023-01-08T11:05:35.758Z,9.5
2023-01-08T11:09:38.492Z,9.4
2023-01-08T11:19:48.571Z,9.8
2023-01-08T11:21:49.943Z,9.8
2023-01-08T11:23:51.297Z,9.9
2023-01-08T11:29:58.700Z,9.9
2023-01-08T11:35:03.788Z,10
2023-01-08T11:37:05.117Z,10
2023-01-08T11:39:06.510Z,10.1
2023-01-08T11:41:07.866Z,10.1
2023-01-08T11:43:12.533Z,10.2
2023-01-08T11:45:13.928Z,10.1
2023-01-08T11:47:15.272Z,9.9
2023-01-08T11:49:16.631Z,9.7
2023-01-08T11:51:17.994Z,9.8
2023-01-08T11:53:19.348Z,9.9
2023-01-08T11:55:20.721Z,10.1
2023-01-08T11:57:25.402Z,10.1
2023-01-08T11:59:26.765Z,9.9
2023-01-08T12:01:28.141Z,9.9
2023-01-08T12:03:29.614Z,10
2023-01-08T12:05:30.904Z,10
2023-01-08T12:07:32.237Z,10.1
2023-01-08T12:09:33.594Z,10.1
2023-01-08T12:11:38.217Z,10.1
2023-01-08T12:13:39.607Z,10.2
2023-01-08T12:15:40.974Z,10.1
2023-01-08T12:17:42.323Z,10.2
2023-01-08T12:19:43.712Z,10.3
2023-01-08T12:21:45.088Z,10.2
2023-01-08T12:25:51.146Z,10.3
2023-01-08T12:32:22.046Z,10.2
2023-01-08T12:36:24.669Z,10.5
2023-01-08T12:38:29.333Z,10.6
2023-01-08T12:40:30.725Z,10.6
2023-01-08T12:42:32.084Z,10.4
2023-01-08T12:44:33.444Z,10.4
2023-01-08T12:46:34.813Z,10.4
2023-01-08T12:48:36.148Z,10.3
2023-01-08T12:50:37.588Z,10.5
2023-01-08T12:52:42.200Z,10.5
2023-01-08T12:54:43.579Z,10.4
2023-01-08T12:56:44.920Z,10.4
2023-01-08T12:58:46.306Z,10.3
2023-01-08T13:00:47.703Z,10.2
2023-01-08T13:02:49.110Z,10.2
2023-01-08T13:04:50.390Z,10.1
2023-01-08T13:06:55.100Z,9.8
2023-01-08T13:12:59.211Z,9.9
2023-01-08T13:15:00.593Z,10.1
2023-01-08T13:17:03.531Z,10.3
2023-01-08T13:19:04.877Z,10.1
2023-01-08T13:21:09.543Z,9.8
2023-01-08T13:23:10.872Z,9.8
2023-01-08T13:25:12.246Z,9.7
2023-01-08T13:26:14.581Z,9.8
2023-01-08T13:32:18.675Z,9.8
2023-01-08T13:36:24.719Z,9.8
2023-01-08T13:38:26.066Z,9.8
2023-01-08T13:42:28.811Z,9.8
2023-01-08T13:44:30.171Z,9.8
2023-01-08T13:46:31.539Z,9.8
2023-01-08T13:50:37.573Z,9.6
2023-01-08T13:52:38.963Z,9.7
2023-01-08T13:54:40.315Z,9.6
2023-01-08T13:56:41.704Z,9.6
2023-01-08T14:00:44.420Z,9.6
2023-01-08T14:02:49.165Z,9.8
2023-01-08T14:04:50.433Z,9.8
2023-01-08T14:12:55.873Z,10.5
2023-01-08T14:14:58.928Z,10.8
2023-01-08T14:17:01.923Z,10.5
2023-01-08T14:19:03.298Z,10.2
2023-01-08T14:21:04.755Z,10.5
2023-01-08T14:22:06.977Z,10.8
2023-01-08T14:24:08.349Z,10.4
2023-01-08T14:26:09.710Z,10
2023-01-08T14:28:11.066Z,9.7
2023-01-08T14:30:15.960Z,9.5
2023-01-08T14:32:17.138Z,9.4
2023-01-08T14:34:18.475Z,9.3
2023-01-08T14:36:19.899Z,9.2
2023-01-08T14:38:21.214Z,9.2
2023-01-08T14:40:22.565Z,9.1
2023-01-08T14:42:23.947Z,9.1
2023-01-08T14:44:37.058Z,9
2023-01-08T14:46:30.022Z,9.1
2023-01-08T14:48:31.371Z,9.1
2023-01-08T14:50:32.743Z,9.3
2023-01-08T14:52:34.092Z,9.5
2023-01-08T14:54:35.554Z,9.8
2023-01-08T14:58:41.547Z,10.5
2023-01-08T15:00:42.871Z,10.5
2023-01-08T15:02:44.254Z,10.4
2023-01-08T15:08:48.307Z,10.3
2023-01-08T15:14:55.674Z,9
2023-01-08T15:17:59.392Z,9
2023-01-08T15:20:00.737Z,8.9
2023-01-08T15:22:02.106Z,8.7
2023-01-08T15:24:03.469Z,8.8
2023-01-08T15:26:08.102Z,8.7
2023-01-08T15:28:09.497Z,8.6
2023-01-08T15:30:10.845Z,8.6
2023-01-08T15:32:12.238Z,8.5
2023-01-08T15:34:13.567Z,8.5
2023-01-08T15:36:14.907Z,8.3
2023-01-08T15:38:16.241Z,8.4
2023-01-08T15:40:20.951Z,8.2
2023-01-08T15:42:22.254Z,8.2
2023-01-08T15:44:23.622Z,8.1
2023-01-08T15:46:24.968Z,8
2023-01-08T15:48:26.328Z,8
2023-01-08T15:50:27.693Z,7.9
2023-01-08T15:52:29.113Z,7.8
2023-01-08T15:54:33.689Z,7.8
2023-01-08T15:56:35.052Z,7.7
2023-01-08T15:58:36.392Z,7.8
2023-01-08T16:00:37.754Z,7.5
2023-01-08T16:02:39.199Z,7.6
2023-01-08T16:04:40.441Z,7.5
2023-01-08T16:06:41.813Z,7.4
2023-01-08T16:08:46.431Z,7.3
2023-01-08T16:10:47.783Z,7.3
2023-01-08T16:12:49.133Z,7.4
2023-01-08T16:17:13.265Z,7.5
2023-01-08T16:19:14.616Z,7.4
2023-01-08T16:25:21.978Z,7.3
2023-01-08T16:27:23.356Z,7.3
2023-01-08T16:29:24.695Z,7.1
2023-01-08T16:31:26.090Z,7.1
2023-01-08T16:33:27.406Z,7.3
2023-01-08T16:37:33.424Z,7.2
2023-01-08T16:39:34.759Z,7.1
2023-01-08T16:41:36.107Z,7.1
2023-01-08T16:43:37.443Z,7
2023-01-08T16:45:38.838Z,7
2023-01-08T16:47:40.179Z,6.8
2023-01-08T16:49:44.795Z,6.9
2023-01-08T16:51:46.155Z,7
2023-01-08T16:53:47.503Z,6.9
2023-01-08T16:55:48.839Z,6.9
2023-01-08T16:57:50.186Z,6.8
2023-01-08T16:59:51.515Z,6.8
2023-01-08T17:01:52.920Z,7.1
2023-01-08T17:04:00.316Z,7.1
2023-01-08T17:05:58.839Z,7
2023-01-08T17:08:00.187Z,7.1
2023-01-08T17:09:02.502Z,7.1
2023-01-08T17:11:03.857Z,7.1
2023-01-08T17:13:05.202Z,7
2023-01-08T17:15:06.533Z,7
2023-01-08T17:17:11.178Z,7.2
2023-01-08T17:19:12.534Z,7.2
2023-01-08T17:21:13.913Z,7.1
2023-01-08T17:23:15.247Z,7.1
2023-01-08T17:25:16.600Z,7.2
2023-01-08T17:27:17.947Z,7.4
2023-01-08T17:29:19.313Z,7.4
2023-01-08T17:31:24.013Z,7.1
2023-01-08T17:33:25.284Z,7.2
2023-01-08T17:35:26.660Z,7.3
2023-01-08T17:37:28.008Z,7.3
2023-01-08T17:39:29.360Z,7.5
2023-01-08T17:41:30.693Z,7.3
2023-01-08T17:43:32.032Z,7.4
2023-01-08T17:45:36.764Z,7.3
2023-01-08T17:47:38.010Z,7.3
2023-01-08T17:49:39.365Z,7.4
2023-01-08T17:51:40.779Z,7.5
2023-01-08T17:53:42.069Z,7.2
2023-01-08T17:55:43.402Z,7.3
2023-01-08T17:57:44.724Z,7.4
2023-01-08T17:59:49.358Z,7.3
2023-01-08T18:01:50.895Z,7.4
2023-01-08T18:03:52.065Z,7.4
2023-01-08T18:04:54.378Z,7.4
2023-01-08T18:06:55.758Z,7.4
2023-01-08T18:08:57.127Z,7.3
2023-01-08T18:10:58.438Z,7.4
2023-01-08T18:13:03.100Z,7.3
2023-01-08T18:15:04.441Z,7.2
2023-01-08T18:17:05.803Z,7.2
2023-01-08T18:19:07.117Z,7.1
2023-01-08T18:21:08.509Z,7.2
2023-01-08T18:27:15.885Z,7.3
2023-01-08T18:29:17.243Z,7.2
2023-01-08T18:31:18.617Z,7.2
2023-01-08T18:33:19.900Z,7.3
2023-01-08T18:39:23.945Z,7.3
2023-01-08T18:41:28.571Z,7.3
2023-01-08T18:43:29.941Z,7.3
2023-01-08T18:49:34.019Z,7.2
2023-01-08T18:51:35.320Z,7.1
2023-01-08T18:55:41.324Z,7
2023-01-08T18:59:44.039Z,6.9
2023-01-08T19:00:46.397Z,7
2023-01-08T19:02:47.770Z,7
2023-01-08T19:04:49.018Z,7.1
2023-01-08T19:06:51.940Z,7
2023-01-08T19:08:57.815Z,7.1
2023-01-08T19:10:57.894Z,7.1
2023-01-08T19:12:59.235Z,6.9
2023-01-08T19:15:00.572Z,6.7
2023-01-08T19:17:01.913Z,6.8
2023-01-08T19:19:03.254Z,6.9
2023-01-08T19:21:04.601Z,6.8
2023-01-08T19:25:10.605Z,6.9
2023-01-08T19:27:11.965Z,7.1
2023-01-08T19:29:13.286Z,7.1
2023-01-08T19:39:23.301Z,6.9
2023-01-08T19:41:24.632Z,7
2023-01-08T19:43:25.955Z,7.1
2023-01-08T19:45:27.464Z,7
2023-01-08T19:47:28.710Z,7.1
2023-01-08T19:49:30.061Z,7
2023-01-08T19:51:34.672Z,6.8
2023-01-08T19:53:36.004Z,6.8
2023-01-08T20:00:01.287Z,6.8
2023-01-08T20:02:02.822Z,6.8
2023-01-08T20:04:07.256Z,7
2023-01-08T20:06:08.592Z,7.1
2023-01-08T20:14:13.952Z,7
2023-01-08T20:16:15.402Z,7.1
2023-01-08T20:18:19.944Z,7.2
2023-01-08T20:20:21.298Z,7.2
2023-01-08T20:22:22.690Z,7.2
2023-01-08T20:24:23.986Z,7.1
2023-01-08T20:26:25.330Z,7.1
2023-01-08T20:28:26.681Z,7.2
2023-01-08T20:30:27.984Z,7.3
2023-01-08T20:32:32.666Z,7.3
2023-01-08T20:34:34.009Z,7.3
2023-01-08T20:36:35.385Z,7.4
2023-01-08T20:38:36.756Z,7.3
2023-01-08T20:40:38.090Z,7.4
2023-01-08T20:42:39.428Z,7.5
2023-01-08T20:44:40.784Z,7.4
2023-01-08T20:46:45.413Z,7.4
2023-01-08T20:48:47.989Z,7.4
2023-01-08T20:50:48.094Z,7.4
2023-01-08T20:53:51.742Z,7.3
2023-01-08T20:55:53.110Z,7.3
2023-01-08T20:57:54.459Z,7.3
2023-01-08T20:59:59.125Z,7.3
2023-01-08T21:02:00.577Z,7.3
2023-01-08T21:04:01.934Z,7.3
2023-01-08T21:06:03.165Z,7.2
2023-01-08T21:08:04.506Z,7.1
2023-01-08T21:10:05.872Z,7.2
2023-01-08T21:12:07.216Z,7.2
2023-01-08T21:16:13.222Z,7.1
2023-01-08T21:20:15.892Z,7.2
2023-01-08T21:22:17.247Z,7.3
2023-01-08T21:24:18.565Z,7.4
2023-01-08T21:28:24.619Z,7.4
2023-01-08T21:38:31.309Z,7.6
2023-01-08T21:42:37.304Z,7.8
2023-01-08T21:47:42.346Z,7.8
2023-01-08T21:49:43.695Z,7.9
2023-01-08T21:51:45.063Z,7.8
2023-01-08T21:55:51.001Z,7.7
2023-01-08T21:57:52.380Z,7.7
2023-01-08T21:59:53.733Z,7.7
2023-01-08T22:01:55.181Z,7.7
2023-01-08T22:03:56.471Z,7.5
2023-01-08T22:05:57.730Z,7.6
2023-01-08T22:07:59.146Z,7.7
2023-01-08T22:10:03.752Z,7.7
2023-01-08T22:12:05.124Z,7.7
2023-01-08T22:14:06.465Z,7.7
2023-01-08T22:16:07.821Z,7.7
2023-01-08T22:18:09.144Z,7.7
2023-01-08T22:20:10.506Z,7.7
2023-01-08T22:22:11.847Z,7.7
2023-01-08T22:24:16.541Z,7.7
2023-01-08T22:26:17.919Z,7.7
2023-01-08T22:28:19.249Z,7.7
2023-01-08T22:30:20.618Z,7.7
2023-01-08T22:32:21.979Z,7.7
2023-01-08T22:34:23.303Z,7.8
2023-01-08T22:36:24.663Z,7.8
2023-01-08T22:38:29.302Z,7.7
2023-01-08T22:40:30.651Z,7.7
2023-01-08T22:42:32.001Z,7.8
2023-01-08T22:43:34.323Z,7.8
2023-01-08T22:47:37.017Z,7.9
2023-01-08T22:49:38.378Z,7.9
2023-01-08T22:51:43.019Z,7.8
2023-01-08T22:53:44.370Z,7.8
2023-01-08T22:55:45.748Z,7.9
2023-01-08T22:57:47.086Z,7.9
2023-01-08T22:59:48.471Z,7.9
2023-01-08T23:01:49.887Z,7.8
2023-01-08T23:03:51.251Z,7.8
2023-01-08T23:05:55.831Z,7.7
2023-01-08T23:07:57.164Z,7.7
2023-01-08T23:09:58.539Z,7.7
2023-01-08T23:11:59.876Z,7.7
2023-01-08T23:14:01.222Z,7.7
2023-01-08T23:16:02.589Z,7.6
2023-01-08T23:18:03.920Z,7.5
2023-01-08T23:20:08.602Z,7.4
2023-01-08T23:22:09.949Z,7.4
2023-01-08T23:24:11.292Z,7.3
2023-01-08T23:26:12.642Z,7.4
2023-01-08T23:28:14.033Z,7.4
2023-01-08T23:30:15.375Z,7.4
2023-01-08T23:32:16.715Z,7.3
2023-01-08T23:34:21.389Z,7.3
2023-01-08T23:40:50.955Z,6.4
2023-01-08T23:42:52.282Z,6.4
2023-01-08T23:44:53.629Z,6.4
2023-01-08T23:46:58.477Z,6.4
2023-01-08T23:48:59.641Z,6.4
2023-01-08T23:51:00.987Z,6.4
2023-01-08T23:53:02.347Z,6.4
2023-01-08T23:55:03.669Z,6.4
2023-01-08T23:57:05.034Z,6.4
2023-01-08T23:59:06.381Z,6.4
